Abraham González International Airport

Airport
ICAO code: 
MMCS
IATA Code: 
CJS
Summary
ICAO Region: 
CARSAM
Territory: 
Location: 
Ciudad Juarez, Chihuahua
Serving: 
Ciudad Juarez
Elevation: 
3904 ft
Coordinates: 
Aerial View: 
31° 38' 10.079" N, 106° 25' 43.201" W
Metar
Observation
MMCS 031440Z 18004KT 10SM SKC 08/02 A3018 RMK SLP173 5//// 984 ISOL CI
Station
Ciudad Juarez International
Date/Time
2021-12-03 14:40:00
Wind direction
180°
Wind speed
04 kts
Lowest cloud amount
n/a
Temperature
8°C
Dew point
2°C
Humidity
65%
Weather condition
n/a

International airport located in Ciudad Juárez, Chihuahua, Mexico, near the Mexico–United States border opposite El Paso, Texas.

Climatology

Cold Desert climate (Köppen climate classification BWk)

Runways

Designator Length Width Surface Rops
14/32 1750 30 ASP No/No
3/21 2700 45 ASP No/No
Airport map: 
Aerial View: 

SKYbrary Partners:

Safety knowledge contributed by: